sensor_id;sensor_type;location;lat;lon;timestamp;temperature;humidity
25949;DHT22;13961;51.178;4.448;2022-07-06T00:02:14;16.90;99.90
25949;DHT22;13961;51.178;4.448;2022-07-06T00:04:40;16.90;99.90
25949;DHT22;13961;51.178;4.448;2022-07-06T00:07:06;16.90;99.90
25949;DHT22;13961;51.178;4.448;2022-07-06T00:09:32;16.80;99.90
25949;DHT22;13961;51.178;4.448;2022-07-06T00:11:58;16.60;99.90
25949;DHT22;13961;51.178;4.448;2022-07-06T00:14:24;16.30;99.90
25949;DHT22;13961;51.178;4.448;2022-07-06T00:16:49;16.10;99.90
25949;DHT22;13961;51.178;4.448;2022-07-06T00:19:15;16.10;99.90
25949;DHT22;13961;51.178;4.448;2022-07-06T00:21:41;16.10;99.90
25949;DHT22;13961;51.178;4.448;2022-07-06T00:24:07;16.10;99.90
25949;DHT22;13961;51.178;4.448;2022-07-06T00:26:32;16.00;99.90
25949;DHT22;13961;51.178;4.448;2022-07-06T00:28:58;15.90;99.90
25949;DHT22;13961;51.178;4.448;2022-07-06T00:31:24;16.00;99.90
25949;DHT22;13961;51.178;4.448;2022-07-06T00:33:49;16.10;99.90
25949;DHT22;13961;51.178;4.448;2022-07-06T00:36:15;15.90;99.90
25949;DHT22;13961;51.178;4.448;2022-07-06T00:38:41;16.00;99.90
25949;DHT22;13961;51.178;4.448;2022-07-06T00:41:07;16.00;99.90
25949;DHT22;13961;51.178;4.448;2022-07-06T00:43:55;16.00;99.90
25949;DHT22;13961;51.178;4.448;2022-07-06T00:46:27;16.00;99.90
25949;DHT22;13961;51.178;4.448;2022-07-06T00:48:53;16.10;99.90
25949;DHT22;13961;51.178;4.448;2022-07-06T00:51:22;16.10;99.90
25949;DHT22;13961;51.178;4.448;2022-07-06T00:53:52;16.30;99.90
25949;DHT22;13961;51.178;4.448;2022-07-06T00:56:19;16.10;99.90
25949;DHT22;13961;51.178;4.448;2022-07-06T00:58:45;16.30;99.90
25949;DHT22;13961;51.178;4.448;2022-07-06T01:01:10;16.40;99.90
25949;DHT22;13961;51.178;4.448;2022-07-06T01:03:36;16.30;99.90
25949;DHT22;13961;51.178;4.448;2022-07-06T01:06:02;16.40;99.90
25949;DHT22;13961;51.178;4.448;2022-07-06T01:08:28;16.30;99.90
25949;DHT22;13961;51.178;4.448;2022-07-06T01:10:55;16.20;99.90
25949;DHT22;13961;51.178;4.448;2022-07-06T01:13:21;16.30;99.90
25949;DHT22;13961;51.178;4.448;2022-07-06T01:15:47;16.20;99.90
25949;DHT22;13961;51.178;4.448;2022-07-06T01:18:12;16.30;99.90
25949;DHT22;13961;51.178;4.448;2022-07-06T01:20:38;16.20;99.90
25949;DHT22;13961;51.178;4.448;2022-07-06T01:23:04;16.20;99.90
25949;DHT22;13961;51.178;4.448;2022-07-06T01:25:30;16.10;99.90
25949;DHT22;13961;51.178;4.448;2022-07-06T01:27:56;16.00;99.90
25949;DHT22;13961;51.178;4.448;2022-07-06T01:30:22;15.90;99.90
25949;DHT22;13961;51.178;4.448;2022-07-06T01:32:48;15.90;99.90
25949;DHT22;13961;51.178;4.448;2022-07-06T01:35:15;15.90;99.90
25949;DHT22;13961;51.178;4.448;2022-07-06T01:37:41;15.80;99.90
25949;DHT22;13961;51.178;4.448;2022-07-06T01:40:09;15.90;99.90
25949;DHT22;13961;51.178;4.448;2022-07-06T01:42:35;15.80;99.90
25949;DHT22;13961;51.178;4.448;2022-07-06T01:45:01;15.80;99.90
25949;DHT22;13961;51.178;4.448;2022-07-06T01:47:27;15.90;99.90
25949;DHT22;13961;51.178;4.448;2022-07-06T01:49:53;15.90;99.90
25949;DHT22;13961;51.178;4.448;2022-07-06T01:52:19;15.50;99.90
25949;DHT22;13961;51.178;4.448;2022-07-06T01:54:45;15.50;99.90
25949;DHT22;13961;51.178;4.448;2022-07-06T01:57:11;15.50;99.90
25949;DHT22;13961;51.178;4.448;2022-07-06T01:59:37;15.30;99.90
25949;DHT22;13961;51.178;4.448;2022-07-06T02:02:03;15.30;99.90
25949;DHT22;13961;51.178;4.448;2022-07-06T02:04:28;15.20;99.90
25949;DHT22;13961;51.178;4.448;2022-07-06T02:06:54;15.10;99.90
25949;DHT22;13961;51.178;4.448;2022-07-06T02:09:19;15.20;99.90
25949;DHT22;13961;51.178;4.448;2022-07-06T02:11:45;15.30;99.90
25949;DHT22;13961;51.178;4.448;2022-07-06T02:14:11;15.30;99.90
25949;DHT22;13961;51.178;4.448;2022-07-06T02:16:36;15.40;99.90
25949;DHT22;13961;51.178;4.448;2022-07-06T02:19:03;15.50;99.90
25949;DHT22;13961;51.178;4.448;2022-07-06T02:21:28;15.50;99.90
25949;DHT22;13961;51.178;4.448;2022-07-06T02:23:54;15.50;99.90
25949;DHT22;13961;51.178;4.448;2022-07-06T02:26:20;15.70;99.90
25949;DHT22;13961;51.178;4.448;2022-07-06T02:28:45;15.90;99.90
25949;DHT22;13961;51.178;4.448;2022-07-06T02:31:13;15.90;99.90
25949;DHT22;13961;51.178;4.448;2022-07-06T02:33:39;16.00;99.90
25949;DHT22;13961;51.178;4.448;2022-07-06T02:36:05;16.00;99.90
25949;DHT22;13961;51.178;4.448;2022-07-06T02:38:30;15.80;99.90
25949;DHT22;13961;51.178;4.448;2022-07-06T02:40:56;15.90;99.90
25949;DHT22;13961;51.178;4.448;2022-07-06T02:43:22;16.00;99.90
25949;DHT22;13961;51.178;4.448;2022-07-06T02:45:47;15.90;99.90
25949;DHT22;13961;51.178;4.448;2022-07-06T02:48:13;15.90;99.90
25949;DHT22;13961;51.178;4.448;2022-07-06T02:50:39;15.90;99.90
25949;DHT22;13961;51.178;4.448;2022-07-06T02:53:04;15.80;99.90
25949;DHT22;13961;51.178;4.448;2022-07-06T02:55:30;16.00;99.90
25949;DHT22;13961;51.178;4.448;2022-07-06T02:57:56;15.90;99.90
25949;DHT22;13961;51.178;4.448;2022-07-06T03:00:21;15.80;99.90
25949;DHT22;13961;51.178;4.448;2022-07-06T03:02:47;15.80;99.90
25949;DHT22;13961;51.178;4.448;2022-07-06T03:05:13;15.90;99.90
25949;DHT22;13961;51.178;4.448;2022-07-06T03:07:38;15.80;99.90
25949;DHT22;13961;51.178;4.448;2022-07-06T03:10:04;15.90;99.90
25949;DHT22;13961;51.178;4.448;2022-07-06T03:12:30;16.00;99.90
25949;DHT22;13961;51.178;4.448;2022-07-06T03:14:57;15.90;99.90
25949;DHT22;13961;51.178;4.448;2022-07-06T03:17:22;15.70;99.90
25949;DHT22;13961;51.178;4.448;2022-07-06T03:19:48;15.50;99.90
25949;DHT22;13961;51.178;4.448;2022-07-06T03:22:14;15.50;99.90
25949;DHT22;13961;51.178;4.448;2022-07-06T03:24:40;15.70;99.90
25949;DHT22;13961;51.178;4.448;2022-07-06T03:27:05;15.80;99.90
25949;DHT22;13961;51.178;4.448;2022-07-06T03:29:31;15.90;99.90
25949;DHT22;13961;51.178;4.448;2022-07-06T03:31:57;15.70;99.90
25949;DHT22;13961;51.178;4.448;2022-07-06T03:34:22;15.60;99.90
25949;DHT22;13961;51.178;4.448;2022-07-06T03:36:48;15.70;99.90
25949;DHT22;13961;51.178;4.448;2022-07-06T03:39:13;15.70;99.90
25949;DHT22;13961;51.178;4.448;2022-07-06T03:41:39;15.90;99.90
25949;DHT22;13961;51.178;4.448;2022-07-06T03:44:05;15.80;99.90
25949;DHT22;13961;51.178;4.448;2022-07-06T03:46:30;15.80;99.90
25949;DHT22;13961;51.178;4.448;2022-07-06T03:48:56;15.80;99.90
25949;DHT22;13961;51.178;4.448;2022-07-06T03:51:22;15.60;99.90
25949;DHT22;13961;51.178;4.448;2022-07-06T03:53:47;15.60;99.90
25949;DHT22;13961;51.178;4.448;2022-07-06T03:56:13;15.60;99.90
25949;DHT22;13961;51.178;4.448;2022-07-06T03:58:57;15.50;99.90
25949;DHT22;13961;51.178;4.448;2022-07-06T04:01:24;15.40;99.90
25949;DHT22;13961;51.178;4.448;2022-07-06T04:03:49;15.40;99.90
25949;DHT22;13961;51.178;4.448;2022-07-06T04:06:15;15.50;99.90
25949;DHT22;13961;51.178;4.448;2022-07-06T04:08:41;15.60;99.90
25949;DHT22;13961;51.178;4.448;2022-07-06T04:11:07;15.80;99.90
25949;DHT22;13961;51.178;4.448;2022-07-06T04:13:32;15.60;99.90
25949;DHT22;13961;51.178;4.448;2022-07-06T04:15:58;15.60;99.90
25949;DHT22;13961;51.178;4.448;2022-07-06T04:18:24;15.60;99.90
25949;DHT22;13961;51.178;4.448;2022-07-06T04:20:50;15.70;99.90
25949;DHT22;13961;51.178;4.448;2022-07-06T04:23:16;15.70;99.90
25949;DHT22;13961;51.178;4.448;2022-07-06T04:25:42;15.70;99.90
25949;DHT22;13961;51.178;4.448;2022-07-06T04:28:07;15.60;99.90
25949;DHT22;13961;51.178;4.448;2022-07-06T04:30:33;15.70;99.90
25949;DHT22;13961;51.178;4.448;2022-07-06T04:32:59;15.70;99.90
25949;DHT22;13961;51.178;4.448;2022-07-06T04:35:25;15.70;99.90
25949;DHT22;13961;51.178;4.448;2022-07-06T04:37:51;15.90;99.90
25949;DHT22;13961;51.178;4.448;2022-07-06T04:40:16;16.00;99.90
25949;DHT22;13961;51.178;4.448;2022-07-06T04:42:42;16.00;99.90
25949;DHT22;13961;51.178;4.448;2022-07-06T04:45:08;16.10;99.90
25949;DHT22;13961;51.178;4.448;2022-07-06T04:47:34;15.90;99.90
25949;DHT22;13961;51.178;4.448;2022-07-06T04:50:01;15.90;99.90
25949;DHT22;13961;51.178;4.448;2022-07-06T04:52:27;16.10;99.90
25949;DHT22;13961;51.178;4.448;2022-07-06T04:54:54;16.30;99.90
25949;DHT22;13961;51.178;4.448;2022-07-06T04:57:20;16.40;99.90
25949;DHT22;13961;51.178;4.448;2022-07-06T04:59:46;16.40;99.90
25949;DHT22;13961;51.178;4.448;2022-07-06T05:02:12;16.40;99.90
25949;DHT22;13961;51.178;4.448;2022-07-06T05:04:38;16.50;99.90
25949;DHT22;13961;51.178;4.448;2022-07-06T05:07:04;16.50;99.90
25949;DHT22;13961;51.178;4.448;2022-07-06T05:09:29;16.60;99.90
25949;DHT22;13961;51.178;4.448;2022-07-06T05:11:55;16.60;99.90
25949;DHT22;13961;51.178;4.448;2022-07-06T05:14:20;16.70;99.90
25949;DHT22;13961;51.178;4.448;2022-07-06T05:16:46;16.50;99.90
25949;DHT22;13961;51.178;4.448;2022-07-06T05:19:12;16.60;99.90
25949;DHT22;13961;51.178;4.448;2022-07-06T05:21:37;16.70;99.90
25949;DHT22;13961;51.178;4.448;2022-07-06T05:24:03;16.60;99.90
25949;DHT22;13961;51.178;4.448;2022-07-06T05:26:29;16.60;99.90
25949;DHT22;13961;51.178;4.448;2022-07-06T05:28:54;16.70;99.90
25949;DHT22;13961;51.178;4.448;2022-07-06T05:31:21;16.70;99.90
25949;DHT22;13961;51.178;4.448;2022-07-06T05:33:46;16.60;99.90
25949;DHT22;13961;51.178;4.448;2022-07-06T05:36:12;16.80;99.90
25949;DHT22;13961;51.178;4.448;2022-07-06T05:38:38;16.90;99.90
25949;DHT22;13961;51.178;4.448;2022-07-06T05:41:03;17.10;99.90
25949;DHT22;13961;51.178;4.448;2022-07-06T05:43:29;17.20;99.90
25949;DHT22;13961;51.178;4.448;2022-07-06T05:45:54;17.40;99.90
25949;DHT22;13961;51.178;4.448;2022-07-06T05:48:20;17.60;99.90
25949;DHT22;13961;51.178;4.448;2022-07-06T05:51:04;17.70;99.90
25949;DHT22;13961;51.178;4.448;2022-07-06T05:53:30;17.80;99.90
25949;DHT22;13961;51.178;4.448;2022-07-06T05:55:56;18.00;99.90
25949;DHT22;13961;51.178;4.448;2022-07-06T05:58:22;18.00;99.90
25949;DHT22;13961;51.178;4.448;2022-07-06T06:00:50;17.90;99.90
25949;DHT22;13961;51.178;4.448;2022-07-06T06:03:16;18.00;99.90
25949;DHT22;13961;51.178;4.448;2022-07-06T06:05:41;18.10;99.90
25949;DHT22;13961;51.178;4.448;2022-07-06T06:08:07;18.30;99.90
25949;DHT22;13961;51.178;4.448;2022-07-06T06:10:33;18.30;99.90
25949;DHT22;13961;51.178;4.448;2022-07-06T06:12:58;18.20;99.90
25949;DHT22;13961;51.178;4.448;2022-07-06T06:15:24;18.40;99.90
25949;DHT22;13961;51.178;4.448;2022-07-06T06:17:50;18.20;99.90
25949;DHT22;13961;51.178;4.448;2022-07-06T06:20:15;18.10;99.90
25949;DHT22;13961;51.178;4.448;2022-07-06T06:22:49;18.20;99.90
25949;DHT22;13961;51.178;4.448;2022-07-06T06:25:17;18.50;99.90
25949;DHT22;13961;51.178;4.448;2022-07-06T06:27:43;18.60;99.90
25949;DHT22;13961;51.178;4.448;2022-07-06T06:30:10;18.70;99.90
25949;DHT22;13961;51.178;4.448;2022-07-06T06:32:35;18.50;99.90
25949;DHT22;13961;51.178;4.448;2022-07-06T06:35:02;18.80;99.90
25949;DHT22;13961;51.178;4.448;2022-07-06T06:37:28;18.90;99.90
25949;DHT22;13961;51.178;4.448;2022-07-06T06:39:55;18.90;99.90
25949;DHT22;13961;51.178;4.448;2022-07-06T06:42:20;19.60;99.90
25949;DHT22;13961;51.178;4.448;2022-07-06T06:44:46;21.40;99.90
25949;DHT22;13961;51.178;4.448;2022-07-06T06:47:11;22.10;99.90
25949;DHT22;13961;51.178;4.448;2022-07-06T06:49:37;21.90;99.90
25949;DHT22;13961;51.178;4.448;2022-07-06T06:52:03;23.10;99.90
25949;DHT22;13961;51.178;4.448;2022-07-06T06:54:28;24.20;99.90
25949;DHT22;13961;51.178;4.448;2022-07-06T06:56:54;24.60;98.90
25949;DHT22;13961;51.178;4.448;2022-07-06T06:59:20;24.90;97.20
25949;DHT22;13961;51.178;4.448;2022-07-06T07:01:45;25.60;96.10
25949;DHT22;13961;51.178;4.448;2022-07-06T07:04:11;25.80;94.90
25949;DHT22;13961;51.178;4.448;2022-07-06T07:06:37;25.60;95.70
25949;DHT22;13961;51.178;4.448;2022-07-06T07:09:03;25.90;95.10
25949;DHT22;13961;51.178;4.448;2022-07-06T07:11:28;26.10;94.70
25949;DHT22;13961;51.178;4.448;2022-07-06T07:13:54;26.00;94.80
25949;DHT22;13961;51.178;4.448;2022-07-06T07:16:20;26.40;94.70
25949;DHT22;13961;51.178;4.448;2022-07-06T07:18:45;27.30;92.90
25949;DHT22;13961;51.178;4.448;2022-07-06T07:21:11;27.40;92.30
25949;DHT22;13961;51.178;4.448;2022-07-06T07:23:37;27.80;91.30
25949;DHT22;13961;51.178;4.448;2022-07-06T07:26:02;27.00;91.50
25949;DHT22;13961;51.178;4.448;2022-07-06T07:28:28;26.50;91.80
25949;DHT22;13961;51.178;4.448;2022-07-06T07:30:54;24.40;94.10
25949;DHT22;13961;51.178;4.448;2022-07-06T07:33:19;24.70;94.60
25949;DHT22;13961;51.178;4.448;2022-07-06T07:35:45;25.30;94.30
25949;DHT22;13961;51.178;4.448;2022-07-06T07:38:10;25.90;93.20
25949;DHT22;13961;51.178;4.448;2022-07-06T07:40:36;26.30;94.20
25949;DHT22;13961;51.178;4.448;2022-07-06T07:43:02;27.40;91.70
25949;DHT22;13961;51.178;4.448;2022-07-06T07:45:28;27.70;91.70
25949;DHT22;13961;51.178;4.448;2022-07-06T07:47:54;28.50;91.20
25949;DHT22;13961;51.178;4.448;2022-07-06T07:50:19;28.90;89.50
25949;DHT22;13961;51.178;4.448;2022-07-06T07:52:45;29.30;87.70
25949;DHT22;13961;51.178;4.448;2022-07-06T07:55:11;29.60;86.80
25949;DHT22;13961;51.178;4.448;2022-07-06T07:57:36;30.40;84.80
25949;DHT22;13961;51.178;4.448;2022-07-06T08:00:03;30.60;83.10
25949;DHT22;13961;51.178;4.448;2022-07-06T08:02:29;30.90;82.80
25949;DHT22;13961;51.178;4.448;2022-07-06T08:04:55;31.50;81.10
25949;DHT22;13961;51.178;4.448;2022-07-06T08:07:21;31.00;81.80
25949;DHT22;13961;51.178;4.448;2022-07-06T08:09:47;29.10;83.40
25949;DHT22;13961;51.178;4.448;2022-07-06T08:12:12;27.90;86.50
25949;DHT22;13961;51.178;4.448;2022-07-06T08:14:38;28.20;84.70
25949;DHT22;13961;51.178;4.448;2022-07-06T08:17:04;28.40;86.60
25949;DHT22;13961;51.178;4.448;2022-07-06T08:19:29;28.50;85.30
25949;DHT22;13961;51.178;4.448;2022-07-06T08:21:56;29.10;84.40
25949;DHT22;13961;51.178;4.448;2022-07-06T08:24:22;29.00;83.00
25949;DHT22;13961;51.178;4.448;2022-07-06T08:26:48;29.70;83.40
25949;DHT22;13961;51.178;4.448;2022-07-06T08:29:14;30.00;82.50
25949;DHT22;13961;51.178;4.448;2022-07-06T08:31:39;29.10;83.10
25949;DHT22;13961;51.178;4.448;2022-07-06T08:34:05;28.30;84.30
25949;DHT22;13961;51.178;4.448;2022-07-06T08:36:31;27.80;85.90
25949;DHT22;13961;51.178;4.448;2022-07-06T08:38:57;28.40;85.50
25949;DHT22;13961;51.178;4.448;2022-07-06T08:41:24;29.00;82.10
25949;DHT22;13961;51.178;4.448;2022-07-06T08:43:51;27.50;85.50
25949;DHT22;13961;51.178;4.448;2022-07-06T08:46:18;26.80;85.10
25949;DHT22;13961;51.178;4.448;2022-07-06T08:48:45;25.50;90.10
25949;DHT22;13961;51.178;4.448;2022-07-06T08:51:13;25.10;90.00
25949;DHT22;13961;51.178;4.448;2022-07-06T08:53:41;25.50;90.10
25949;DHT22;13961;51.178;4.448;2022-07-06T08:56:07;26.40;90.50
25949;DHT22;13961;51.178;4.448;2022-07-06T08:58:33;26.30;88.50
25949;DHT22;13961;51.178;4.448;2022-07-06T09:01:00;25.60;89.90
25949;DHT22;13961;51.178;4.448;2022-07-06T09:03:27;25.70;90.40
25949;DHT22;13961;51.178;4.448;2022-07-06T09:06:00;25.60;90.20
25949;DHT22;13961;51.178;4.448;2022-07-06T09:08:30;24.90;91.30
25949;DHT22;13961;51.178;4.448;2022-07-06T09:10:56;24.20;92.20
25949;DHT22;13961;51.178;4.448;2022-07-06T09:13:22;24.70;91.80
25949;DHT22;13961;51.178;4.448;2022-07-06T09:15:48;25.10;90.70
25949;DHT22;13961;51.178;4.448;2022-07-06T09:18:14;25.30;91.50
25949;DHT22;13961;51.178;4.448;2022-07-06T09:20:43;25.10;91.80
25949;DHT22;13961;51.178;4.448;2022-07-06T09:23:08;24.70;92.60
25949;DHT22;13961;51.178;4.448;2022-07-06T09:25:35;24.20;91.90
25949;DHT22;13961;51.178;4.448;2022-07-06T09:28:02;24.30;93.10
25949;DHT22;13961;51.178;4.448;2022-07-06T09:30:28;24.20;92.80
25949;DHT22;13961;51.178;4.448;2022-07-06T09:32:56;24.30;92.80
25949;DHT22;13961;51.178;4.448;2022-07-06T09:35:35;24.90;92.00
25949;DHT22;13961;51.178;4.448;2022-07-06T09:38:12;25.60;91.40
25949;DHT22;13961;51.178;4.448;2022-07-06T09:40:43;25.80;90.90
25949;DHT22;13961;51.178;4.448;2022-07-06T09:45:41;25.70;90.80
25949;DHT22;13961;51.178;4.448;2022-07-06T09:48:20;24.60;92.10
25949;DHT22;13961;51.178;4.448;2022-07-06T09:50:57;24.40;92.20
25949;DHT22;13961;51.178;4.448;2022-07-06T09:53:25;23.70;93.50
25949;DHT22;13961;51.178;4.448;2022-07-06T09:55:53;23.80;93.50
25949;DHT22;13961;51.178;4.448;2022-07-06T09:58:20;24.10;93.60
25949;DHT22;13961;51.178;4.448;2022-07-06T10:00:46;24.20;93.40
25949;DHT22;13961;51.178;4.448;2022-07-06T10:03:13;24.40;93.90
25949;DHT22;13961;51.178;4.448;2022-07-06T10:05:41;24.50;93.40
25949;DHT22;13961;51.178;4.448;2022-07-06T10:08:08;24.80;92.20
25949;DHT22;13961;51.178;4.448;2022-07-06T10:10:38;24.90;92.00
25949;DHT22;13961;51.178;4.448;2022-07-06T10:13:05;24.80;91.60
25949;DHT22;13961;51.178;4.448;2022-07-06T10:15:31;25.00;92.10
25949;DHT22;13961;51.178;4.448;2022-07-06T10:18:02;24.70;93.10
25949;DHT22;13961;51.178;4.448;2022-07-06T10:20:29;24.80;93.00
25949;DHT22;13961;51.178;4.448;2022-07-06T10:23:00;24.70;93.30
25949;DHT22;13961;51.178;4.448;2022-07-06T10:25:27;24.00;93.30
25949;DHT22;13961;51.178;4.448;2022-07-06T10:27:53;24.20;93.90
25949;DHT22;13961;51.178;4.448;2022-07-06T10:30:19;24.50;91.90
25949;DHT22;13961;51.178;4.448;2022-07-06T10:32:47;24.20;94.40
25949;DHT22;13961;51.178;4.448;2022-07-06T10:35:15;24.40;94.10
25949;DHT22;13961;51.178;4.448;2022-07-06T10:37:41;24.50;92.50
25949;DHT22;13961;51.178;4.448;2022-07-06T10:40:07;24.20;94.10
25949;DHT22;13961;51.178;4.448;2022-07-06T10:43:02;24.00;93.70
25949;DHT22;13961;51.178;4.448;2022-07-06T10:50:53;24.00;93.30
25949;DHT22;13961;51.178;4.448;2022-07-06T10:53:27;23.70;94.30
25949;DHT22;13961;51.178;4.448;2022-07-06T10:55:56;24.00;94.20
25949;DHT22;13961;51.178;4.448;2022-07-06T10:58:49;24.20;94.00
25949;DHT22;13961;51.178;4.448;2022-07-06T11:01:19;24.60;93.00
25949;DHT22;13961;51.178;4.448;2022-07-06T11:06:17;24.50;94.10
25949;DHT22;13961;51.178;4.448;2022-07-06T11:14:08;25.20;92.40
25949;DHT22;13961;51.178;4.448;2022-07-06T11:16:38;25.10;93.10
25949;DHT22;13961;51.178;4.448;2022-07-06T11:21:47;25.50;91.50
25949;DHT22;13961;51.178;4.448;2022-07-06T11:26:44;25.10;91.10
25949;DHT22;13961;51.178;4.448;2022-07-06T11:29:12;24.90;91.80
25949;DHT22;13961;51.178;4.448;2022-07-06T11:31:45;24.90;91.80
25949;DHT22;13961;51.178;4.448;2022-07-06T11:34:13;24.80;92.40
25949;DHT22;13961;51.178;4.448;2022-07-06T11:36:42;24.90;92.80
25949;DHT22;13961;51.178;4.448;2022-07-06T11:39:07;25.00;91.80
25949;DHT22;13961;51.178;4.448;2022-07-06T11:41:34;25.20;92.00
25949;DHT22;13961;51.178;4.448;2022-07-06T11:44:00;24.90;92.20
25949;DHT22;13961;51.178;4.448;2022-07-06T11:46:32;25.20;92.00
25949;DHT22;13961;51.178;4.448;2022-07-06T11:49:07;25.00;91.60
25949;DHT22;13961;51.178;4.448;2022-07-06T11:51:36;24.50;92.10
25949;DHT22;13961;51.178;4.448;2022-07-06T11:54:11;24.30;92.60
25949;DHT22;13961;51.178;4.448;2022-07-06T11:56:44;24.20;91.10
25949;DHT22;13961;51.178;4.448;2022-07-06T11:59:10;24.30;92.50
25949;DHT22;13961;51.178;4.448;2022-07-06T12:01:36;24.10;92.00
25949;DHT22;13961;51.178;4.448;2022-07-06T12:04:06;24.10;92.60
25949;DHT22;13961;51.178;4.448;2022-07-06T12:06:33;24.20;93.30
25949;DHT22;13961;51.178;4.448;2022-07-06T12:09:00;24.40;92.60
25949;DHT22;13961;51.178;4.448;2022-07-06T12:11:31;24.70;93.20
25949;DHT22;13961;51.178;4.448;2022-07-06T12:13:58;24.90;92.90
25949;DHT22;13961;51.178;4.448;2022-07-06T12:16:33;25.00;92.60
25949;DHT22;13961;51.178;4.448;2022-07-06T12:19:00;24.70;92.90
25949;DHT22;13961;51.178;4.448;2022-07-06T12:21:26;24.00;93.70
25949;DHT22;13961;51.178;4.448;2022-07-06T12:23:53;23.90;94.30
25949;DHT22;13961;51.178;4.448;2022-07-06T12:26:21;23.60;93.10
25949;DHT22;13961;51.178;4.448;2022-07-06T12:29:00;23.90;93.80
25949;DHT22;13961;51.178;4.448;2022-07-06T12:31:53;24.20;94.10
25949;DHT22;13961;51.178;4.448;2022-07-06T12:36:48;24.80;93.50
25949;DHT22;13961;51.178;4.448;2022-07-06T12:39:15;24.90;92.80
25949;DHT22;13961;51.178;4.448;2022-07-06T12:41:52;24.90;92.80
25949;DHT22;13961;51.178;4.448;2022-07-06T12:44:22;25.00;92.30
25949;DHT22;13961;51.178;4.448;2022-07-06T12:46:50;25.10;93.00
25949;DHT22;13961;51.178;4.448;2022-07-06T12:49:21;24.80;93.10
25949;DHT22;13961;51.178;4.448;2022-07-06T12:54:26;24.10;93.80
25949;DHT22;13961;51.178;4.448;2022-07-06T12:57:24;24.30;94.10
25949;DHT22;13961;51.178;4.448;2022-07-06T13:02:30;24.10;94.10
25949;DHT22;13961;51.178;4.448;2022-07-06T13:07:28;24.70;93.80
25949;DHT22;13961;51.178;4.448;2022-07-06T13:09:55;24.70;93.30
25949;DHT22;13961;51.178;4.448;2022-07-06T13:12:21;23.80;94.60
25949;DHT22;13961;51.178;4.448;2022-07-06T13:14:48;24.10;95.70
25949;DHT22;13961;51.178;4.448;2022-07-06T13:17:14;24.30;94.30
25949;DHT22;13961;51.178;4.448;2022-07-06T13:19:40;24.30;96.10
25949;DHT22;13961;51.178;4.448;2022-07-06T13:22:05;23.80;96.70
25949;DHT22;13961;51.178;4.448;2022-07-06T13:24:31;23.90;96.70
25949;DHT22;13961;51.178;4.448;2022-07-06T13:26:57;24.50;95.70
25949;DHT22;13961;51.178;4.448;2022-07-06T13:29:23;24.60;95.60
25949;DHT22;13961;51.178;4.448;2022-07-06T13:31:49;24.90;94.70
25949;DHT22;13961;51.178;4.448;2022-07-06T13:34:15;25.20;94.30
25949;DHT22;13961;51.178;4.448;2022-07-06T13:36:41;25.20;95.00
25949;DHT22;13961;51.178;4.448;2022-07-06T13:39:07;24.50;94.90
25949;DHT22;13961;51.178;4.448;2022-07-06T13:41:33;24.10;95.70
25949;DHT22;13961;51.178;4.448;2022-07-06T13:44:00;24.40;97.10
25949;DHT22;13961;51.178;4.448;2022-07-06T13:46:30;24.50;95.90
25949;DHT22;13961;51.178;4.448;2022-07-06T13:48:56;24.70;96.00
25949;DHT22;13961;51.178;4.448;2022-07-06T13:51:23;25.10;95.70
25949;DHT22;13961;51.178;4.448;2022-07-06T13:53:50;25.60;95.70
25949;DHT22;13961;51.178;4.448;2022-07-06T13:56:16;25.60;94.20
25949;DHT22;13961;51.178;4.448;2022-07-06T13:58:42;24.60;95.00
25949;DHT22;13961;51.178;4.448;2022-07-06T14:01:09;23.80;96.60
25949;DHT22;13961;51.178;4.448;2022-07-06T14:03:34;23.80;97.10
25949;DHT22;13961;51.178;4.448;2022-07-06T14:06:03;24.40;96.60
25949;DHT22;13961;51.178;4.448;2022-07-06T14:08:29;24.60;96.00
25949;DHT22;13961;51.178;4.448;2022-07-06T14:10:56;24.70;95.80
25949;DHT22;13961;51.178;4.448;2022-07-06T14:13:22;24.90;95.50
25949;DHT22;13961;51.178;4.448;2022-07-06T14:15:48;25.20;95.80
25949;DHT22;13961;51.178;4.448;2022-07-06T14:18:14;24.90;95.60
25949;DHT22;13961;51.178;4.448;2022-07-06T14:20:40;25.20;95.70
25949;DHT22;13961;51.178;4.448;2022-07-06T14:23:07;25.50;95.40
25949;DHT22;13961;51.178;4.448;2022-07-06T14:25:33;25.10;95.60
25949;DHT22;13961;51.178;4.448;2022-07-06T14:27:59;25.40;95.80
25949;DHT22;13961;51.178;4.448;2022-07-06T14:30:25;25.00;95.60
25949;DHT22;13961;51.178;4.448;2022-07-06T14:32:51;25.10;96.30
25949;DHT22;13961;51.178;4.448;2022-07-06T14:35:16;25.60;95.70
25949;DHT22;13961;51.178;4.448;2022-07-06T14:37:42;25.20;95.90
25949;DHT22;13961;51.178;4.448;2022-07-06T14:40:08;25.40;94.80
25949;DHT22;13961;51.178;4.448;2022-07-06T14:42:34;25.60;94.80
25949;DHT22;13961;51.178;4.448;2022-07-06T14:45:00;25.50;95.00
25949;DHT22;13961;51.178;4.448;2022-07-06T14:47:26;25.50;94.90
25949;DHT22;13961;51.178;4.448;2022-07-06T14:49:51;25.40;96.00
25949;DHT22;13961;51.178;4.448;2022-07-06T14:52:18;25.20;96.10
25949;DHT22;13961;51.178;4.448;2022-07-06T14:54:44;25.50;95.80
25949;DHT22;13961;51.178;4.448;2022-07-06T14:57:09;25.30;95.10
25949;DHT22;13961;51.178;4.448;2022-07-06T14:59:35;25.50;95.20
25949;DHT22;13961;51.178;4.448;2022-07-06T15:02:02;25.30;94.80
25949;DHT22;13961;51.178;4.448;2022-07-06T15:04:28;25.10;94.90
25949;DHT22;13961;51.178;4.448;2022-07-06T15:06:53;25.00;95.20
25949;DHT22;13961;51.178;4.448;2022-07-06T15:09:19;25.00;94.80
25949;DHT22;13961;51.178;4.448;2022-07-06T15:11:45;25.10;94.90
25949;DHT22;13961;51.178;4.448;2022-07-06T15:14:11;25.00;95.20
25949;DHT22;13961;51.178;4.448;2022-07-06T15:16:38;25.30;95.10
25949;DHT22;13961;51.178;4.448;2022-07-06T15:19:04;25.60;95.00
25949;DHT22;13961;51.178;4.448;2022-07-06T15:21:30;25.60;94.40
25949;DHT22;13961;51.178;4.448;2022-07-06T15:23:56;25.00;95.20
25949;DHT22;13961;51.178;4.448;2022-07-06T15:26:22;25.20;95.10
25949;DHT22;13961;51.178;4.448;2022-07-06T15:28:50;25.20;95.10
25949;DHT22;13961;51.178;4.448;2022-07-06T15:31:15;25.10;95.60
25949;DHT22;13961;51.178;4.448;2022-07-06T15:33:41;25.20;95.80
25949;DHT22;13961;51.178;4.448;2022-07-06T15:36:07;24.80;96.20
25949;DHT22;13961;51.178;4.448;2022-07-06T15:38:33;24.70;96.20
25949;DHT22;13961;51.178;4.448;2022-07-06T15:41:00;24.70;95.60
25949;DHT22;13961;51.178;4.448;2022-07-06T15:43:31;25.20;95.70
25949;DHT22;13961;51.178;4.448;2022-07-06T15:46:01;25.40;95.00
25949;DHT22;13961;51.178;4.448;2022-07-06T15:48:28;25.40;95.10
25949;DHT22;13961;51.178;4.448;2022-07-06T15:50:54;25.10;95.90
25949;DHT22;13961;51.178;4.448;2022-07-06T15:53:20;24.50;96.80
25949;DHT22;13961;51.178;4.448;2022-07-06T15:55:45;24.60;97.60
25949;DHT22;13961;51.178;4.448;2022-07-06T15:58:12;24.40;97.20
25949;DHT22;13961;51.178;4.448;2022-07-06T16:00:38;24.60;96.90